sensor_id;sensor_type;location;lat;lon;timestamp;temperature;humidity
10889;DHT22;5497;51.388;6.780;2022-07-24T00:00:43;16.70;99.90
10889;DHT22;5497;51.388;6.780;2022-07-24T00:03:20;16.70;99.90
10889;DHT22;5497;51.388;6.780;2022-07-24T00:06:18;16.70;99.90
10889;DHT22;5497;51.388;6.780;2022-07-24T00:09:00;16.60;99.90
10889;DHT22;5497;51.388;6.780;2022-07-24T00:11:34;16.60;99.90
10889;DHT22;5497;51.388;6.780;2022-07-24T00:14:13;16.60;99.90
10889;DHT22;5497;51.388;6.780;2022-07-24T00:16:51;16.60;99.90
10889;DHT22;5497;51.388;6.780;2022-07-24T00:19:28;16.50;99.90
10889;DHT22;5497;51.388;6.780;2022-07-24T00:22:15;16.50;99.90
10889;DHT22;5497;51.388;6.780;2022-07-24T00:25:02;16.50;99.90
10889;DHT22;5497;51.388;6.780;2022-07-24T00:27:38;16.40;99.90
10889;DHT22;5497;51.388;6.780;2022-07-24T00:30:10;16.40;99.90
10889;DHT22;5497;51.388;6.780;2022-07-24T00:32:49;16.40;99.90
10889;DHT22;5497;51.388;6.780;2022-07-24T00:35:33;16.40;99.90
10889;DHT22;5497;51.388;6.780;2022-07-24T00:38:14;16.30;99.90
10889;DHT22;5497;51.388;6.780;2022-07-24T00:40:46;16.30;99.90
10889;DHT22;5497;51.388;6.780;2022-07-24T00:43:28;16.30;99.90
10889;DHT22;5497;51.388;6.780;2022-07-24T00:46:00;16.30;99.90
10889;DHT22;5497;51.388;6.780;2022-07-24T00:48:31;16.20;99.90
10889;DHT22;5497;51.388;6.780;2022-07-24T00:51:07;16.20;99.90
10889;DHT22;5497;51.388;6.780;2022-07-24T00:53:54;16.20;99.90
10889;DHT22;5497;51.388;6.780;2022-07-24T00:56:27;16.10;99.90
10889;DHT22;5497;51.388;6.780;2022-07-24T00:59:05;16.10;99.90
10889;DHT22;5497;51.388;6.780;2022-07-24T01:01:51;16.10;99.90
10889;DHT22;5497;51.388;6.780;2022-07-24T01:04:24;16.00;99.90
10889;DHT22;5497;51.388;6.780;2022-07-24T01:07:17;16.00;99.90
10889;DHT22;5497;51.388;6.780;2022-07-24T01:09:50;16.00;99.90
10889;DHT22;5497;51.388;6.780;2022-07-24T01:12:30;16.00;99.90
10889;DHT22;5497;51.388;6.780;2022-07-24T01:15:04;15.90;99.90
10889;DHT22;5497;51.388;6.780;2022-07-24T01:17:41;15.90;99.90
10889;DHT22;5497;51.388;6.780;2022-07-24T01:20:15;15.90;99.90
10889;DHT22;5497;51.388;6.780;2022-07-24T01:22:50;15.80;99.90
10889;DHT22;5497;51.388;6.780;2022-07-24T01:25:29;15.80;99.90
10889;DHT22;5497;51.388;6.780;2022-07-24T01:31:19;15.80;99.90
10889;DHT22;5497;51.388;6.780;2022-07-24T01:34:05;15.70;99.90
10889;DHT22;5497;51.388;6.780;2022-07-24T01:36:39;15.70;99.90
10889;DHT22;5497;51.388;6.780;2022-07-24T01:39:33;15.70;99.90
10889;DHT22;5497;51.388;6.780;2022-07-24T01:42:07;15.60;99.90
10889;DHT22;5497;51.388;6.780;2022-07-24T01:44:45;15.60;99.90
10889;DHT22;5497;51.388;6.780;2022-07-24T01:47:16;15.60;99.90
10889;DHT22;5497;51.388;6.780;2022-07-24T01:49:44;15.60;99.90
10889;DHT22;5497;51.388;6.780;2022-07-24T01:52:16;15.60;99.90
10889;DHT22;5497;51.388;6.780;2022-07-24T01:54:47;15.60;99.90
10889;DHT22;5497;51.388;6.780;2022-07-24T01:57:18;15.60;99.90
10889;DHT22;5497;51.388;6.780;2022-07-24T01:59:48;15.60;99.90
10889;DHT22;5497;51.388;6.780;2022-07-24T02:02:57;15.60;99.90
10889;DHT22;5497;51.388;6.780;2022-07-24T02:05:44;15.60;99.90
10889;DHT22;5497;51.388;6.780;2022-07-24T02:08:24;15.60;99.90
10889;DHT22;5497;51.388;6.780;2022-07-24T02:11:03;15.60;99.90
10889;DHT22;5497;51.388;6.780;2022-07-24T02:13:33;15.60;99.90
10889;DHT22;5497;51.388;6.780;2022-07-24T02:16:14;15.60;99.90
10889;DHT22;5497;51.388;6.780;2022-07-24T02:18:46;15.50;99.90
10889;DHT22;5497;51.388;6.780;2022-07-24T02:21:37;15.00;99.90
10889;DHT22;5497;51.388;6.780;2022-07-24T02:24:12;15.50;99.90
10889;DHT22;5497;51.388;6.780;2022-07-24T02:26:56;15.50;99.90
10889;DHT22;5497;51.388;6.780;2022-07-24T02:29:37;15.40;99.90
10889;DHT22;5497;51.388;6.780;2022-07-24T02:32:12;15.40;99.90
10889;DHT22;5497;51.388;6.780;2022-07-24T02:34:50;15.40;99.90
10889;DHT22;5497;51.388;6.780;2022-07-24T02:37:26;15.40;99.90
10889;DHT22;5497;51.388;6.780;2022-07-24T02:40:01;15.30;99.90
10889;DHT22;5497;51.388;6.780;2022-07-24T02:42:48;15.40;99.90
10889;DHT22;5497;51.388;6.780;2022-07-24T02:48:40;15.40;99.90
10889;DHT22;5497;51.388;6.780;2022-07-24T02:54:27;15.40;99.90
10889;DHT22;5497;51.388;6.780;2022-07-24T02:57:12;15.50;99.90
10889;DHT22;5497;51.388;6.780;2022-07-24T03:02:47;15.50;99.90
10889;DHT22;5497;51.388;6.780;2022-07-24T03:05:48;15.50;99.90
10889;DHT22;5497;51.388;6.780;2022-07-24T03:08:21;15.50;99.90
10889;DHT22;5497;51.388;6.780;2022-07-24T03:11:01;15.50;99.90
10889;DHT22;5497;51.388;6.780;2022-07-24T03:13:47;15.50;99.90
10889;DHT22;5497;51.388;6.780;2022-07-24T03:16:51;15.60;99.90
10889;DHT22;5497;51.388;6.780;2022-07-24T03:19:36;15.60;99.90
10889;DHT22;5497;51.388;6.780;2022-07-24T03:22:04;15.60;99.90
10889;DHT22;5497;51.388;6.780;2022-07-24T03:24:38;15.60;99.90
10889;DHT22;5497;51.388;6.780;2022-07-24T03:27:15;15.60;99.90
10889;DHT22;5497;51.388;6.780;2022-07-24T03:29:46;15.60;99.90
10889;DHT22;5497;51.388;6.780;2022-07-24T03:32:23;15.60;99.90
10889;DHT22;5497;51.388;6.780;2022-07-24T03:35:09;15.60;99.90
10889;DHT22;5497;51.388;6.780;2022-07-24T03:37:46;15.60;99.90
10889;DHT22;5497;51.388;6.780;2022-07-24T03:40:17;15.60;99.90
10889;DHT22;5497;51.388;6.780;2022-07-24T03:42:57;15.60;99.90
10889;DHT22;5497;51.388;6.780;2022-07-24T03:45:32;15.70;99.90
10889;DHT22;5497;51.388;6.780;2022-07-24T03:48:01;15.70;99.90
10889;DHT22;5497;51.388;6.780;2022-07-24T03:50:40;15.70;99.90
10889;DHT22;5497;51.388;6.780;2022-07-24T03:53:25;15.70;99.90
10889;DHT22;5497;51.388;6.780;2022-07-24T03:56:06;15.60;99.90
10889;DHT22;5497;51.388;6.780;2022-07-24T03:58:37;15.60;99.90
10889;DHT22;5497;51.388;6.780;2022-07-24T04:01:34;15.70;99.90
10889;DHT22;5497;51.388;6.780;2022-07-24T04:04:06;15.70;99.90
10889;DHT22;5497;51.388;6.780;2022-07-24T04:06:44;15.70;99.90
10889;DHT22;5497;51.388;6.780;2022-07-24T04:09:21;15.70;99.90
10889;DHT22;5497;51.388;6.780;2022-07-24T04:12:07;17.10;99.90
10889;DHT22;5497;51.388;6.780;2022-07-24T04:14:51;15.80;99.90
10889;DHT22;5497;51.388;6.780;2022-07-24T04:17:26;15.80;99.90
10889;DHT22;5497;51.388;6.780;2022-07-24T04:20:02;15.80;99.90
10889;DHT22;5497;51.388;6.780;2022-07-24T04:22:47;15.90;99.90
10889;DHT22;5497;51.388;6.780;2022-07-24T04:25:23;15.90;99.90
10889;DHT22;5497;51.388;6.780;2022-07-24T04:27:56;16.00;99.90
10889;DHT22;5497;51.388;6.780;2022-07-24T04:30:34;16.00;99.90
10889;DHT22;5497;51.388;6.780;2022-07-24T04:33:16;16.00;99.90
10889;DHT22;5497;51.388;6.780;2022-07-24T04:35:51;16.10;99.90
10889;DHT22;5497;51.388;6.780;2022-07-24T04:38:37;16.10;99.90
10889;DHT22;5497;51.388;6.780;2022-07-24T04:41:07;16.20;99.90
10889;DHT22;5497;51.388;6.780;2022-07-24T04:43:48;16.20;99.90
10889;DHT22;5497;51.388;6.780;2022-07-24T04:46:27;16.40;99.90
10889;DHT22;5497;51.388;6.780;2022-07-24T04:48:59;16.40;99.90
10889;DHT22;5497;51.388;6.780;2022-07-24T04:51:40;16.50;99.90
10889;DHT22;5497;51.388;6.780;2022-07-24T04:54:21;16.60;99.90
10889;DHT22;5497;51.388;6.780;2022-07-24T04:56:59;16.80;99.90
10889;DHT22;5497;51.388;6.780;2022-07-24T04:59:34;16.90;99.90
10889;DHT22;5497;51.388;6.780;2022-07-24T05:02:20;17.00;99.90
10889;DHT22;5497;51.388;6.780;2022-07-24T05:04:52;17.20;99.90
10889;DHT22;5497;51.388;6.780;2022-07-24T05:07:26;17.30;99.90
10889;DHT22;5497;51.388;6.780;2022-07-24T05:10:03;17.50;99.90
10889;DHT22;5497;51.388;6.780;2022-07-24T05:15:35;17.90;99.90
10889;DHT22;5497;51.388;6.780;2022-07-24T05:18:11;18.20;99.90
10889;DHT22;5497;51.388;6.780;2022-07-24T05:20:50;18.40;99.90
10889;DHT22;5497;51.388;6.780;2022-07-24T05:25:20;18.70;99.90
10889;DHT22;5497;51.388;6.780;2022-07-24T05:26:24;18.90;99.90
10889;DHT22;5497;51.388;6.780;2022-07-24T05:29:14;19.20;99.90
10889;DHT22;5497;51.388;6.780;2022-07-24T05:32:03;19.70;99.90
10889;DHT22;5497;51.388;6.780;2022-07-24T05:34:46;19.70;99.90
10889;DHT22;5497;51.388;6.780;2022-07-24T05:37:41;19.90;99.90
10889;DHT22;5497;51.388;6.780;2022-07-24T05:40:12;20.00;99.90
10889;DHT22;5497;51.388;6.780;2022-07-24T05:42:43;20.20;99.90
10889;DHT22;5497;51.388;6.780;2022-07-24T05:45:11;20.90;99.90
10889;DHT22;5497;51.388;6.780;2022-07-24T05:47:45;21.60;99.90
10889;DHT22;5497;51.388;6.780;2022-07-24T05:50:14;22.60;99.90
10889;DHT22;5497;51.388;6.780;2022-07-24T05:52:55;23.60;99.90
10889;DHT22;5497;51.388;6.780;2022-07-24T05:55:31;24.80;99.90
10889;DHT22;5497;51.388;6.780;2022-07-24T05:58:03;26.10;99.90
10889;DHT22;5497;51.388;6.780;2022-07-24T06:00:32;27.10;99.90
10889;DHT22;5497;51.388;6.780;2022-07-24T06:03:07;28.10;99.90
10889;DHT22;5497;51.388;6.780;2022-07-24T06:05:49;29.10;99.90
10889;DHT22;5497;51.388;6.780;2022-07-24T06:08:46;29.90;99.90
10889;DHT22;5497;51.388;6.780;2022-07-24T06:11:19;30.90;99.90
10889;DHT22;5497;51.388;6.780;2022-07-24T06:14:00;31.60;99.90
10889;DHT22;5497;51.388;6.780;2022-07-24T06:16:32;32.10;99.90
10889;DHT22;5497;51.388;6.780;2022-07-24T06:19:05;32.60;99.90
10889;DHT22;5497;51.388;6.780;2022-07-24T06:21:42;33.10;99.90
10889;DHT22;5497;51.388;6.780;2022-07-24T06:24:15;33.60;99.90
10889;DHT22;5497;51.388;6.780;2022-07-24T06:26:48;34.00;99.90
10889;DHT22;5497;51.388;6.780;2022-07-24T06:29:31;34.30;99.90
10889;DHT22;5497;51.388;6.780;2022-07-24T06:32:18;34.60;99.90
10889;DHT22;5497;51.388;6.780;2022-07-24T06:35:04;34.70;99.90
10889;DHT22;5497;51.388;6.780;2022-07-24T06:37:38;34.90;99.90
10889;DHT22;5497;51.388;6.780;2022-07-24T06:40:05;35.20;99.00
10889;DHT22;5497;51.388;6.780;2022-07-24T06:42:39;35.50;99.70
10889;DHT22;5497;51.388;6.780;2022-07-24T06:45:10;35.60;95.90
10889;DHT22;5497;51.388;6.780;2022-07-24T06:47:38;35.80;93.80
10889;DHT22;5497;51.388;6.780;2022-07-24T06:50:07;35.90;92.60
10889;DHT22;5497;51.388;6.780;2022-07-24T06:52:42;36.10;91.50
10889;DHT22;5497;51.388;6.780;2022-07-24T06:55:11;36.10;90.60
10889;DHT22;5497;51.388;6.780;2022-07-24T06:57:39;36.20;90.80
10889;DHT22;5497;51.388;6.780;2022-07-24T07:00:12;36.60;90.50
10889;DHT22;5497;51.388;6.780;2022-07-24T07:02:45;36.90;89.20
10889;DHT22;5497;51.388;6.780;2022-07-24T07:05:19;37.10;87.60
10889;DHT22;5497;51.388;6.780;2022-07-24T07:07:50;37.30;87.10
10889;DHT22;5497;51.388;6.780;2022-07-24T07:10:21;37.40;82.50
10889;DHT22;5497;51.388;6.780;2022-07-24T07:12:49;37.50;82.40
10889;DHT22;5497;51.388;6.780;2022-07-24T07:15:20;37.70;82.10
10889;DHT22;5497;51.388;6.780;2022-07-24T07:17:50;37.80;80.30
10889;DHT22;5497;51.388;6.780;2022-07-24T07:20:21;37.90;79.40
10889;DHT22;5497;51.388;6.780;2022-07-24T07:22:50;38.00;79.20
10889;DHT22;5497;51.388;6.780;2022-07-24T07:25:20;38.20;75.90
10889;DHT22;5497;51.388;6.780;2022-07-24T07:28:01;38.30;75.20
10889;DHT22;5497;51.388;6.780;2022-07-24T07:30:30;38.30;73.70
10889;DHT22;5497;51.388;6.780;2022-07-24T07:32:59;37.90;75.20
10889;DHT22;5497;51.388;6.780;2022-07-24T07:35:30;37.80;73.30
10889;DHT22;5497;51.388;6.780;2022-07-24T07:38:18;37.70;73.20
10889;DHT22;5497;51.388;6.780;2022-07-24T07:40:57;37.80;74.50
10889;DHT22;5497;51.388;6.780;2022-07-24T07:43:34;37.90;74.20
10889;DHT22;5497;51.388;6.780;2022-07-24T07:46:10;38.00;72.30
10889;DHT22;5497;51.388;6.780;2022-07-24T07:48:44;38.00;73.10
10889;DHT22;5497;51.388;6.780;2022-07-24T07:51:24;38.40;71.70
10889;DHT22;5497;51.388;6.780;2022-07-24T07:53:58;38.40;71.30
10889;DHT22;5497;51.388;6.780;2022-07-24T07:56:28;38.20;69.80
10889;DHT22;5497;51.388;6.780;2022-07-24T07:59:03;37.90;69.60
10889;DHT22;5497;51.388;6.780;2022-07-24T08:01:37;37.70;70.40
10889;DHT22;5497;51.388;6.780;2022-07-24T08:04:09;37.70;70.10
10889;DHT22;5497;51.388;6.780;2022-07-24T08:06:37;37.60;69.40
10889;DHT22;5497;51.388;6.780;2022-07-24T08:09:15;37.40;69.60
10889;DHT22;5497;51.388;6.780;2022-07-24T08:11:48;37.30;69.50
10889;DHT22;5497;51.388;6.780;2022-07-24T08:14:17;37.20;69.80
10889;DHT22;5497;51.388;6.780;2022-07-24T08:16:53;37.20;70.40
10889;DHT22;5497;51.388;6.780;2022-07-24T08:19:32;37.30;70.00
10889;DHT22;5497;51.388;6.780;2022-07-24T08:22:10;37.20;72.20
10889;DHT22;5497;51.388;6.780;2022-07-24T08:24:45;37.30;71.00
10889;DHT22;5497;51.388;6.780;2022-07-24T08:27:16;37.50;70.40
10889;DHT22;5497;51.388;6.780;2022-07-24T08:30:02;37.60;68.20
10889;DHT22;5497;51.388;6.780;2022-07-24T08:32:43;37.50;69.00
10889;DHT22;5497;51.388;6.780;2022-07-24T08:35:17;37.20;68.50
10889;DHT22;5497;51.388;6.780;2022-07-24T08:37:47;37.00;69.90
10889;DHT22;5497;51.388;6.780;2022-07-24T08:40:24;37.00;68.90
10889;DHT22;5497;51.388;6.780;2022-07-24T08:42:58;36.60;69.80
10889;DHT22;5497;51.388;6.780;2022-07-24T08:45:33;36.40;70.50
10889;DHT22;5497;51.388;6.780;2022-07-24T08:48:04;36.40;70.30
10889;DHT22;5497;51.388;6.780;2022-07-24T08:50:51;36.50;69.60
10889;DHT22;5497;51.388;6.780;2022-07-24T08:53:20;36.50;69.50
10889;DHT22;5497;51.388;6.780;2022-07-24T08:55:51;36.40;69.70
10889;DHT22;5497;51.388;6.780;2022-07-24T08:58:25;36.30;70.10
10889;DHT22;5497;51.388;6.780;2022-07-24T09:00:53;36.20;70.10
10889;DHT22;5497;51.388;6.780;2022-07-24T09:03:26;36.20;70.30
10889;DHT22;5497;51.388;6.780;2022-07-24T09:06:18;36.10;70.10
10889;DHT22;5497;51.388;6.780;2022-07-24T09:09:02;36.00;70.50
10889;DHT22;5497;51.388;6.780;2022-07-24T09:12:07;35.80;71.40
10889;DHT22;5497;51.388;6.780;2022-07-24T09:14:45;35.70;71.20
10889;DHT22;5497;51.388;6.780;2022-07-24T09:17:24;35.80;71.20
10889;DHT22;5497;51.388;6.780;2022-07-24T09:20:07;35.90;71.20
10889;DHT22;5497;51.388;6.780;2022-07-24T09:22:44;35.60;70.80
10889;DHT22;5497;51.388;6.780;2022-07-24T09:25:13;35.60;71.00
10889;DHT22;5497;51.388;6.780;2022-07-24T09:27:47;35.40;71.10
10889;DHT22;5497;51.388;6.780;2022-07-24T09:30:23;35.20;71.10
10889;DHT22;5497;51.388;6.780;2022-07-24T09:32:53;34.90;71.60
10889;DHT22;5497;51.388;6.780;2022-07-24T09:35:25;34.80;71.80
10889;DHT22;5497;51.388;6.780;2022-07-24T09:38:08;34.60;72.20
10889;DHT22;5497;51.388;6.780;2022-07-24T09:40:44;34.50;72.50
10889;DHT22;5497;51.388;6.780;2022-07-24T09:43:24;34.20;72.40
10889;DHT22;5497;51.388;6.780;2022-07-24T09:45:59;34.10;73.20
10889;DHT22;5497;51.388;6.780;2022-07-24T09:48:50;34.00;73.10
10889;DHT22;5497;51.388;6.780;2022-07-24T09:51:25;33.90;73.90
10889;DHT22;5497;51.388;6.780;2022-07-24T09:54:05;33.70;73.30
10889;DHT22;5497;51.388;6.780;2022-07-24T09:56:37;33.50;73.60
10889;DHT22;5497;51.388;6.780;2022-07-24T09:59:11;33.30;74.60
10889;DHT22;5497;51.388;6.780;2022-07-24T10:01:43;32.90;74.10
10889;DHT22;5497;51.388;6.780;2022-07-24T10:04:14;32.50;74.20
10889;DHT22;5497;51.388;6.780;2022-07-24T10:06:47;32.00;75.90
10889;DHT22;5497;51.388;6.780;2022-07-24T10:09:18;31.50;76.70
10889;DHT22;5497;51.388;6.780;2022-07-24T10:11:52;31.20;78.30
10889;DHT22;5497;51.388;6.780;2022-07-24T10:14:29;30.80;78.20
10889;DHT22;5497;51.388;6.780;2022-07-24T10:17:04;30.50;79.60
10889;DHT22;5497;51.388;6.780;2022-07-24T10:19:38;30.40;80.60
10889;DHT22;5497;51.388;6.780;2022-07-24T10:22:22;29.90;79.70
10889;DHT22;5497;51.388;6.780;2022-07-24T10:25:04;29.90;80.80
10889;DHT22;5497;51.388;6.780;2022-07-24T10:27:49;29.80;81.60
10889;DHT22;5497;51.388;6.780;2022-07-24T10:30:39;29.80;82.40
10889;DHT22;5497;51.388;6.780;2022-07-24T10:33:22;29.90;81.70
10889;DHT22;5497;51.388;6.780;2022-07-24T10:36:06;29.80;82.50
10889;DHT22;5497;51.388;6.780;2022-07-24T10:38:48;29.70;81.70
10889;DHT22;5497;51.388;6.780;2022-07-24T10:41:23;29.60;83.20
10889;DHT22;5497;51.388;6.780;2022-07-24T10:49:48;29.50;83.30
10889;DHT22;5497;51.388;6.780;2022-07-24T10:52:34;29.60;82.40
10889;DHT22;5497;51.388;6.780;2022-07-24T10:55:22;29.70;83.40
10889;DHT22;5497;51.388;6.780;2022-07-24T10:58:21;29.80;82.70
10889;DHT22;5497;51.388;6.780;2022-07-24T11:01:26;29.80;82.00
10889;DHT22;5497;51.388;6.780;2022-07-24T11:03:56;30.10;81.70
10889;DHT22;5497;51.388;6.780;2022-07-24T11:06:41;30.30;82.30
10889;DHT22;5497;51.388;6.780;2022-07-24T11:09:19;30.50;82.40
10889;DHT22;5497;51.388;6.780;2022-07-24T11:12:15;30.90;80.00
10889;DHT22;5497;51.388;6.780;2022-07-24T11:15:12;31.00;80.10
10889;DHT22;5497;51.388;6.780;2022-07-24T11:18:12;31.10;80.00
10889;DHT22;5497;51.388;6.780;2022-07-24T11:20:45;31.30;79.50
10889;DHT22;5497;51.388;6.780;2022-07-24T11:23:21;31.10;78.50
10889;DHT22;5497;51.388;6.780;2022-07-24T11:29:22;30.80;78.80
10889;DHT22;5497;51.388;6.780;2022-07-24T11:32:04;30.70;79.80
10889;DHT22;5497;51.388;6.780;2022-07-24T11:34:44;30.70;80.40
10889;DHT22;5497;51.388;6.780;2022-07-24T11:37:31;30.80;80.70
10889;DHT22;5497;51.388;6.780;2022-07-24T11:40:21;30.90;80.60
10889;DHT22;5497;51.388;6.780;2022-07-24T11:43:26;30.80;79.30
10889;DHT22;5497;51.388;6.780;2022-07-24T11:46:11;30.70;80.00
10889;DHT22;5497;51.388;6.780;2022-07-24T11:49:01;30.80;80.50
10889;DHT22;5497;51.388;6.780;2022-07-24T11:51:52;31.00;80.70
10889;DHT22;5497;51.388;6.780;2022-07-24T11:54:29;31.20;79.40
10889;DHT22;5497;51.388;6.780;2022-07-24T11:57:15;31.30;79.70
10889;DHT22;5497;51.388;6.780;2022-07-24T12:00:16;31.40;78.30
10889;DHT22;5497;51.388;6.780;2022-07-24T12:02:55;31.30;78.20
10889;DHT22;5497;51.388;6.780;2022-07-24T12:05:40;31.30;78.50
10889;DHT22;5497;51.388;6.780;2022-07-24T12:08:19;31.30;78.60
10889;DHT22;5497;51.388;6.780;2022-07-24T12:11:29;31.30;78.70
10889;DHT22;5497;51.388;6.780;2022-07-24T12:14:15;31.40;78.70
10889;DHT22;5497;51.388;6.780;2022-07-24T12:16:50;31.40;77.60
10889;DHT22;5497;51.388;6.780;2022-07-24T12:19:26;31.30;77.50
10889;DHT22;5497;51.388;6.780;2022-07-24T12:22:14;31.30;77.50
10889;DHT22;5497;51.388;6.780;2022-07-24T12:24:57;31.30;77.80
10889;DHT22;5497;51.388;6.780;2022-07-24T12:27:40;31.40;77.30
10889;DHT22;5497;51.388;6.780;2022-07-24T12:30:43;31.50;77.40
10889;DHT22;5497;51.388;6.780;2022-07-24T12:33:19;31.80;77.50
10889;DHT22;5497;51.388;6.780;2022-07-24T12:36:11;31.80;76.20
10889;DHT22;5497;51.388;6.780;2022-07-24T12:41:45;31.90;76.00
10889;DHT22;5497;51.388;6.780;2022-07-24T12:44:21;32.00;75.00
10889;DHT22;5497;51.388;6.780;2022-07-24T12:47:14;32.50;75.40
10889;DHT22;5497;51.388;6.780;2022-07-24T12:49:50;32.10;74.50
10889;DHT22;5497;51.388;6.780;2022-07-24T12:52:27;32.10;74.20
10889;DHT22;5497;51.388;6.780;2022-07-24T12:54:58;32.10;73.80
10889;DHT22;5497;51.388;6.780;2022-07-24T12:57:45;32.20;74.00
10889;DHT22;5497;51.388;6.780;2022-07-24T13:00:16;32.30;74.20
10889;DHT22;5497;51.388;6.780;2022-07-24T13:02:54;32.40;73.00
10889;DHT22;5497;51.388;6.780;2022-07-24T13:05:38;32.50;73.10
10889;DHT22;5497;51.388;6.780;2022-07-24T13:08:19;32.40;73.40
10889;DHT22;5497;51.388;6.780;2022-07-24T13:10:47;32.50;73.80
10889;DHT22;5497;51.388;6.780;2022-07-24T13:13:20;32.50;72.70
10889;DHT22;5497;51.388;6.780;2022-07-24T13:15:52;32.40;72.70
10889;DHT22;5497;51.388;6.780;2022-07-24T13:18:31;32.30;73.40
10889;DHT22;5497;51.388;6.780;2022-07-24T13:21:11;32.40;73.00
10889;DHT22;5497;51.388;6.780;2022-07-24T13:23:42;32.40;72.30
10889;DHT22;5497;51.388;6.780;2022-07-24T13:26:16;32.40;72.80
10889;DHT22;5497;51.388;6.780;2022-07-24T13:28:50;32.50;72.70
10889;DHT22;5497;51.388;6.780;2022-07-24T13:31:26;32.70;72.90
10889;DHT22;5497;51.388;6.780;2022-07-24T13:34:04;32.90;71.90
10889;DHT22;5497;51.388;6.780;2022-07-24T13:36:49;32.90;70.90
10889;DHT22;5497;51.388;6.780;2022-07-24T13:39:25;32.90;69.70
10889;DHT22;5497;51.388;6.780;2022-07-24T13:41:56;32.70;70.50
10889;DHT22;5497;51.388;6.780;2022-07-24T13:44:43;32.60;71.20
10889;DHT22;5497;51.388;6.780;2022-07-24T13:47:11;32.50;70.70
10889;DHT22;5497;51.388;6.780;2022-07-24T13:49:43;32.30;70.50
10889;DHT22;5497;51.388;6.780;2022-07-24T13:52:16;32.30;69.60
10889;DHT22;5497;51.388;6.780;2022-07-24T13:54:45;32.40;70.10
10889;DHT22;5497;51.388;6.780;2022-07-24T13:57:14;32.40;71.40
10889;DHT22;5497;51.388;6.780;2022-07-24T13:59:52;32.40;70.00
10889;DHT22;5497;51.388;6.780;2022-07-24T14:02:26;32.40;70.70
10889;DHT22;5497;51.388;6.780;2022-07-24T14:05:05;32.40;70.60
10889;DHT22;5497;51.388;6.780;2022-07-24T14:07:40;32.60;70.50
10889;DHT22;5497;51.388;6.780;2022-07-24T14:10:13;32.70;70.40
10889;DHT22;5497;51.388;6.780;2022-07-24T14:12:43;32.90;70.30
10889;DHT22;5497;51.388;6.780;2022-07-24T14:15:12;33.00;69.70
10889;DHT22;5497;51.388;6.780;2022-07-24T14:17:47;32.80;69.80
10889;DHT22;5497;51.388;6.780;2022-07-24T14:20:18;33.10;69.40
10889;DHT22;5497;51.388;6.780;2022-07-24T14:22:45;33.70;70.30
10889;DHT22;5497;51.388;6.780;2022-07-24T14:25:14;33.30;69.70
10889;DHT22;5497;51.388;6.780;2022-07-24T14:27:41;33.30;68.90
10889;DHT22;5497;51.388;6.780;2022-07-24T14:30:08;33.30;69.00
10889;DHT22;5497;51.388;6.780;2022-07-24T14:32:36;33.30;69.40
10889;DHT22;5497;51.388;6.780;2022-07-24T14:35:04;33.30;69.20
10889;DHT22;5497;51.388;6.780;2022-07-24T14:37:34;33.30;68.40
10889;DHT22;5497;51.388;6.780;2022-07-24T14:40:01;33.30;68.20
10889;DHT22;5497;51.388;6.780;2022-07-24T14:42:30;33.30;68.70
10889;DHT22;5497;51.388;6.780;2022-07-24T14:44:57;33.40;68.50
10889;DHT22;5497;51.388;6.780;2022-07-24T14:47:24;33.40;67.90
10889;DHT22;5497;51.388;6.780;2022-07-24T14:49:51;33.40;67.90
10889;DHT22;5497;51.388;6.780;2022-07-24T14:52:18;33.40;67.90
10889;DHT22;5497;51.388;6.780;2022-07-24T14:54:46;33.40;67.80
10889;DHT22;5497;51.388;6.780;2022-07-24T14:57:13;33.40;68.20
10889;DHT22;5497;51.388;6.780;2022-07-24T14:59:41;33.40;68.40
10889;DHT22;5497;51.388;6.780;2022-07-24T15:02:08;33.40;67.60
10889;DHT22;5497;51.388;6.780;2022-07-24T15:04:37;33.40;67.90
10889;DHT22;5497;51.388;6.780;2022-07-24T15:07:04;33.40;66.80
10889;DHT22;5497;51.388;6.780;2022-07-24T15:09:31;33.40;67.40
10889;DHT22;5497;51.388;6.780;2022-07-24T15:11:58;33.30;67.30
10889;DHT22;5497;51.388;6.780;2022-07-24T15:14:27;33.20;66.60
10889;DHT22;5497;51.388;6.780;2022-07-24T15:16:55;33.20;67.60
10889;DHT22;5497;51.388;6.780;2022-07-24T15:19:22;33.20;67.90
10889;DHT22;5497;51.388;6.780;2022-07-24T15:21:49;33.30;67.80
10889;DHT22;5497;51.388;6.780;2022-07-24T15:24:16;33.30;66.90
10889;DHT22;5497;51.388;6.780;2022-07-24T15:26:43;33.30;67.70
10889;DHT22;5497;51.388;6.780;2022-07-24T15:29:10;33.40;68.10
10889;DHT22;5497;51.388;6.780;2022-07-24T15:31:38;33.40;68.00
10889;DHT22;5497;51.388;6.780;2022-07-24T15:34:06;33.50;67.10
10889;DHT22;5497;51.388;6.780;2022-07-24T15:36:33;33.60;67.30
10889;DHT22;5497;51.388;6.780;2022-07-24T15:39:00;33.50;67.30
10889;DHT22;5497;51.388;6.780;2022-07-24T15:41:27;33.40;67.60
10889;DHT22;5497;51.388;6.780;2022-07-24T15:43:54;33.40;67.20
10889;DHT22;5497;51.388;6.780;2022-07-24T15:46:21;33.40;67.30
10889;DHT22;5497;51.388;6.780;2022-07-24T15:48:48;33.30;67.40
10889;DHT22;5497;51.388;6.780;2022-07-24T15:51:16;33.40;67.60
10889;DHT22;5497;51.388;6.780;2022-07-24T15:53:46;33.30;67.00
10889;DHT22;5497;51.388;6.780;2022-07-24T15:56:13;33.30;67.60
10889;DHT22;5497;51.388;6.780;2022-07-24T15:58:40;33.30;67.80
10889;DHT22;5497;51.388;6.780;2022-07-24T16:01:07;33.30;67.50
10889;DHT22;5497;51.388;6.780;2022-07-24T16:03:34;33.30;67.70
10889;DHT22;5497;51.388;6.780;2022-07-24T16:06:01;33.30;67.40
10889;DHT22;5497;51.388;6.780;2022-07-24T16:08:31;33.20;67.30
10889;DHT22;5497;51.388;6.780;2022-07-24T16:10:59;33.20;67.60
10889;DHT22;5497;51.388;6.780;2022-07-24T16:13:26;33.00;66.30
10889;DHT22;5497;51.388;6.780;2022-07-24T16:15:53;32.90;67.10
10889;DHT22;5497;51.388;6.780;2022-07-24T16:18:20;32.80;67.60
10889;DHT22;5497;51.388;6.780;2022-07-24T16:20:49;32.80;68.00
10889;DHT22;5497;51.388;6.780;2022-07-24T16:23:16;32.80;67.60
10889;DHT22;5497;51.388;6.780;2022-07-24T16:25:45;32.80;68.30
10889;DHT22;5497;51.388;6.780;2022-07-24T16:28:12;32.90;68.50
10889;DHT22;5497;51.388;6.780;2022-07-24T16:30:39;32.90;68.40
10889;DHT22;5497;51.388;6.780;2022-07-24T16:33:10;33.00;68.00
10889;DHT22;5497;51.388;6.780;2022-07-24T16:35:37;33.00;68.40
10889;DHT22;5497;51.388;6.780;2022-07-24T16:38:04;33.00;68.20
10889;DHT22;5497;51.388;6.780;2022-07-24T16:40:31;33.10;68.00
10889;DHT22;5497;51.388;6.780;2022-07-24T16:42:59;33.00;67.80
10889;DHT22;5497;51.388;6.780;2022-07-24T16:45:26;32.90;68.00
10889;DHT22;5497;51.388;6.780;2022-07-24T16:47:53;33.00;68.00
10889;DHT22;5497;51.388;6.780;2022-07-24T16:50:21;33.00;68.30
10889;DHT22;5497;51.388;6.780;2022-07-24T16:52:47;33.10;67.80
10889;DHT22;5497;51.388;6.780;2022-07-24T16:55:14;33.10;67.80
10889;DHT22;5497;51.388;6.780;2022-07-24T16:57:42;33.00;67.70
10889;DHT22;5497;51.388;6.780;2022-07-24T17:00:11;33.00;68.00
10889;DHT22;5497;51.388;6.780;2022-07-24T17:02:39;33.00;68.00
10889;DHT22;5497;51.388;6.780;2022-07-24T17:05:08;33.00;68.30
10889;DHT22;5497;51.388;6.780;2022-07-24T17:07:38;33.00;68.40
10889;DHT22;5497;51.388;6.780;2022-07-24T17:10:05;32.90;68.20